Terminal Aerodrome Forecast
Issued by NWS

Home | Current Version | Previous Version | Text Only | Print | Product List | Glossary On
Versions: 1 2 3 4 5 6 7 8 9 10 11 12
000
FTUS43 KDMX 240520
TAFFOD
TAF
KFOD 240520Z 2406/2506 20010KT P6SM SKC
     FM241700 25012KT P6SM FEW250
     FM241900 28013G25KT P6SM FEW200
     FM242100 31014G27KT P6SM SCT120
     FM250100 31008KT P6SM SKC=

USA.gov is the U.S. government's official web portal to all federal, state and local government web resources and services.